createdAt,value
2023-04-07T00:01:13.500Z,11.30
2023-04-07T00:03:41.888Z,12.17
2023-04-07T00:06:09.681Z,12.67
2023-04-07T00:08:38.821Z,11.80
2023-04-07T00:11:06.620Z,12.13
2023-04-07T00:13:34.321Z,12.60
2023-04-07T00:16:02.067Z,15.57
2023-04-07T00:18:29.897Z,12.43
2023-04-07T00:20:57.634Z,12.60
2023-04-07T00:23:25.468Z,11.90
2023-04-07T00:25:54.592Z,11.30
2023-04-07T00:28:22.296Z,12.63
2023-04-07T00:30:50.189Z,12.13
2023-04-07T00:33:17.953Z,11.97
2023-04-07T00:35:46.282Z,12.90
2023-04-07T00:38:13.975Z,12.20
2023-04-07T00:40:41.710Z,12.50
2023-04-07T00:43:10.761Z,13.30
2023-04-07T00:45:38.704Z,12.43
2023-04-07T00:48:07.385Z,12.33
2023-04-07T00:50:35.097Z,12.63
2023-04-07T00:53:03.167Z,11.97
2023-04-07T00:55:31.016Z,13.40
2023-04-07T00:57:58.711Z,12.90
2023-04-07T01:00:28.860Z,12.10
2023-04-07T01:03:00.487Z,12.20
2023-04-07T01:05:39.092Z,13.10
2023-04-07T01:08:14.173Z,12.40
2023-04-07T01:10:50.380Z,12.30
2023-04-07T01:13:24.926Z,12.73
2023-04-07T01:15:57.355Z,11.47
2023-04-07T01:18:29.337Z,11.50
2023-04-07T01:21:01.499Z,11.43
2023-04-07T01:23:53.250Z,13.20
2023-04-07T01:26:25.754Z,13.10
2023-04-07T01:29:13.402Z,11.83
2023-04-07T01:31:43.307Z,11.77
2023-04-07T01:34:12.728Z,11.97
2023-04-07T01:36:41.496Z,11.23
2023-04-07T01:39:10.425Z,13.60
2023-04-07T01:41:39.540Z,12.40
2023-04-07T01:44:08.996Z,12.80
2023-04-07T01:46:36.751Z,12.10
2023-04-07T01:49:06.788Z,13.00
2023-04-07T01:51:35.444Z,11.97
2023-04-07T01:54:03.806Z,11.90
2023-04-07T01:56:31.579Z,11.40
2023-04-07T01:58:59.253Z,12.33
2023-04-07T02:01:27.119Z,12.33
2023-04-07T02:04:02.004Z,11.77
2023-04-07T02:06:35.678Z,10.93
2023-04-07T02:09:07.995Z,13.50
2023-04-07T02:11:36.957Z,12.27
2023-04-07T02:14:07.166Z,11.13
2023-04-07T02:16:36.431Z,11.77
2023-04-07T02:19:05.506Z,11.83
2023-04-07T02:21:36.420Z,11.50
2023-04-07T02:24:07.350Z,12.90
2023-04-07T02:26:36.324Z,12.40
2023-04-07T02:29:04.559Z,11.00
2023-04-07T02:31:32.367Z,12.50
2023-04-07T02:34:00.197Z,11.97
2023-04-07T02:36:27.918Z,11.87
2023-04-07T02:38:56.982Z,11.43
2023-04-07T02:41:24.660Z,12.53
2023-04-07T02:43:52.536Z,12.30
2023-04-07T02:46:20.520Z,11.27
2023-04-07T02:48:48.293Z,12.33
2023-04-07T02:51:15.969Z,12.10
2023-04-07T02:53:43.656Z,12.87
2023-04-07T02:56:12.716Z,11.40
2023-04-07T02:58:40.413Z,11.67
2023-04-07T03:01:08.143Z,12.50
2023-04-07T03:03:36.157Z,12.50
2023-04-07T03:06:04.019Z,12.30
2023-04-07T03:08:31.683Z,11.30
2023-04-07T03:10:59.370Z,11.73
2023-04-07T03:13:29.860Z,10.70
2023-04-07T03:15:57.869Z,12.47
2023-04-07T03:18:25.616Z,11.47
2023-04-07T03:20:55.284Z,12.73
2023-04-07T03:23:23.911Z,11.37
2023-04-07T03:25:51.662Z,13.40
2023-04-07T03:28:19.352Z,12.50
2023-04-07T03:30:48.436Z,13.77
2023-04-07T03:33:17.199Z,12.30
2023-04-07T03:35:44.935Z,11.93
2023-04-07T03:38:12.811Z,12.60
2023-04-07T03:40:40.899Z,12.80
2023-04-07T03:43:12.462Z,12.90
2023-04-07T03:45:40.437Z,11.37
2023-04-07T03:48:11.965Z,13.27
2023-04-07T03:50:40.486Z,11.70
2023-04-07T03:53:08.271Z,12.23
2023-04-07T03:55:36.152Z,12.83
2023-04-07T03:58:03.856Z,12.40
2023-04-07T04:00:33.145Z,13.20
2023-04-07T04:03:01.112Z,12.40
2023-04-07T04:05:30.377Z,13.13
2023-04-07T04:07:58.053Z,12.70
2023-04-07T04:10:25.768Z,12.70
2023-04-07T04:12:53.545Z,14.27
2023-04-07T04:15:21.290Z,12.67
2023-04-07T04:17:49.326Z,12.10
2023-04-07T04:20:17.065Z,12.40
2023-04-07T04:22:46.134Z,13.13
2023-04-07T04:25:13.814Z,13.17
2023-04-07T04:27:41.685Z,13.87
2023-04-07T04:30:10.082Z,12.10
2023-04-07T04:32:38.231Z,11.70
2023-04-07T04:35:06.779Z,11.23
2023-04-07T04:37:34.765Z,13.83
2023-04-07T04:40:04.039Z,11.60
2023-04-07T04:42:33.789Z,12.50
2023-04-07T04:45:01.532Z,12.93
2023-04-07T04:47:29.279Z,11.53
2023-04-07T04:49:57.052Z,12.67
2023-04-07T04:52:24.790Z,11.50
2023-04-07T04:54:52.493Z,12.73
2023-04-07T04:57:21.539Z,12.30
2023-04-07T04:59:49.416Z,13.63
2023-04-07T05:02:17.218Z,12.50
2023-04-07T05:04:45.104Z,12.00
2023-04-07T05:07:12.919Z,13.73
2023-04-07T05:09:40.595Z,13.87
2023-04-07T05:12:08.521Z,12.30
2023-04-07T05:14:37.552Z,13.00
2023-04-07T05:17:05.267Z,14.70
2023-04-07T05:19:33.524Z,12.80
2023-04-07T05:22:01.245Z,12.40
2023-04-07T05:24:30.122Z,13.40
2023-04-07T05:26:57.926Z,14.13
2023-04-07T05:29:25.862Z,12.00
2023-04-07T05:31:54.931Z,13.40
2023-04-07T05:34:22.689Z,12.80
2023-04-07T05:36:51.069Z,13.47
2023-04-07T05:39:18.776Z,12.90
2023-04-07T05:41:46.584Z,13.70
2023-04-07T05:44:14.307Z,13.70
2023-04-07T05:46:42.050Z,13.60
2023-04-07T05:49:19.754Z,13.23
2023-04-07T05:51:49.177Z,12.77
2023-04-07T05:54:17.302Z,13.53
2023-04-07T05:56:45.430Z,13.37
2023-04-07T05:59:13.128Z,13.97
2023-04-07T06:01:41.098Z,15.70
2023-04-07T06:04:08.908Z,16.43
2023-04-07T06:06:39.030Z,17.70
2023-04-07T06:09:07.781Z,16.50
2023-04-07T06:11:36.029Z,18.33
2023-04-07T06:14:03.713Z,16.17
2023-04-07T06:16:31.440Z,17.03
2023-04-07T06:18:59.259Z,19.20
2023-04-07T06:21:27.352Z,16.70
2023-04-07T06:23:56.416Z,17.80
2023-04-07T06:26:24.444Z,18.27
2023-04-07T06:28:52.863Z,14.93
2023-04-07T06:31:20.951Z,16.90
2023-04-07T06:33:48.903Z,16.77
2023-04-07T06:36:16.795Z,16.80
2023-04-07T06:38:44.592Z,15.33
2023-04-07T06:41:16.914Z,17.30
2023-04-07T06:43:45.043Z,16.07
2023-04-07T06:46:12.791Z,16.27
2023-04-07T06:48:40.767Z,15.60
2023-04-07T06:51:08.460Z,15.50
2023-04-07T06:53:36.428Z,14.10
2023-04-07T06:56:05.430Z,14.83
2023-04-07T06:58:35.689Z,15.63
2023-04-07T07:01:03.943Z,14.87
2023-04-07T07:03:32.088Z,15.07
2023-04-07T07:06:00.237Z,14.43
2023-04-07T07:08:28.980Z,14.57
2023-04-07T07:10:56.762Z,15.30
2023-04-07T07:13:26.102Z,14.10
2023-04-07T07:15:56.016Z,12.57
2023-04-07T07:18:23.746Z,12.70
2023-04-07T07:20:51.669Z,11.77
2023-04-07T07:23:19.449Z,13.40
2023-04-07T07:25:47.189Z,12.57
2023-04-07T07:28:15.083Z,13.23
2023-04-07T07:30:42.886Z,14.10
2023-04-07T07:33:11.982Z,14.33
2023-04-07T07:35:40.380Z,16.17
2023-04-07T07:38:08.358Z,17.33
2023-04-07T07:40:36.141Z,16.70
2023-04-07T07:43:03.880Z,16.63
2023-04-07T07:45:31.594Z,16.20
2023-04-07T07:47:59.355Z,14.33
2023-04-07T07:50:28.467Z,14.60
2023-04-07T07:52:56.182Z,14.73
2023-04-07T07:55:24.082Z,13.40
2023-04-07T07:57:51.804Z,12.90
2023-04-07T08:00:19.815Z,13.90
2023-04-07T08:02:47.611Z,13.73
2023-04-07T08:05:15.478Z,13.33
2023-04-07T08:07:44.519Z,12.17
2023-04-07T08:10:12.236Z,12.00
2023-04-07T08:12:40.006Z,12.40
2023-04-07T08:15:09.767Z,12.10
2023-04-07T08:17:37.744Z,11.90
2023-04-07T08:20:06.774Z,13.83
2023-04-07T08:22:34.530Z,12.93
2023-04-07T08:25:03.590Z,12.90
2023-04-07T08:27:31.318Z,12.03
2023-04-07T08:30:02.853Z,12.23
2023-04-07T08:32:36.602Z,12.20
2023-04-07T08:35:04.853Z,12.80
2023-04-07T08:37:33.122Z,10.90
2023-04-07T08:40:00.872Z,9.63
2023-04-07T08:42:31.577Z,9.17
2023-04-07T08:45:03.497Z,9.50
2023-04-07T08:47:34.012Z,9.60
2023-04-07T08:50:03.732Z,9.63
2023-04-07T08:52:35.312Z,9.70
2023-04-07T08:55:06.704Z,8.87
2023-04-07T08:57:36.088Z,8.60
2023-04-07T09:00:05.882Z,8.50
2023-04-07T09:02:35.116Z,9.13
2023-04-07T09:05:05.575Z,8.97
2023-04-07T09:07:34.624Z,7.47
2023-04-07T09:10:02.603Z,8.70
2023-04-07T09:12:31.404Z,8.17
2023-04-07T09:15:00.941Z,9.77
2023-04-07T09:17:29.682Z,9.43
2023-04-07T09:19:58.369Z,8.33
2023-04-07T09:22:36.959Z,9.13
2023-04-07T09:25:12.676Z,9.33
2023-04-07T09:27:40.428Z,9.50
2023-04-07T09:30:16.663Z,7.90
2023-04-07T09:32:44.570Z,8.20
2023-04-07T09:35:12.354Z,8.60
2023-04-07T09:37:40.230Z,7.57
2023-04-07T09:40:09.519Z,7.47
2023-04-07T09:42:45.404Z,8.00
2023-04-07T09:45:18.590Z,7.60
2023-04-07T09:47:56.962Z,8.33
2023-04-07T09:50:35.157Z,8.83
2023-04-07T09:53:04.654Z,7.70
2023-04-07T09:55:33.857Z,7.47
2023-04-07T09:58:02.517Z,7.93
2023-04-07T10:00:30.358Z,9.30
2023-04-07T10:02:59.772Z,8.00
2023-04-07T10:05:28.607Z,8.10
2023-04-07T10:07:57.017Z,8.87
2023-04-07T10:10:26.483Z,8.43
2023-04-07T10:12:55.049Z,8.60
2023-04-07T10:15:23.822Z,9.40
2023-04-07T10:17:52.640Z,8.80
2023-04-07T10:20:22.520Z,7.80
2023-04-07T10:22:51.914Z,7.97
2023-04-07T10:25:21.655Z,8.83
2023-04-07T10:27:52.318Z,7.80
2023-04-07T10:30:23.698Z,8.57
2023-04-07T10:32:54.308Z,8.33
2023-04-07T10:35:24.280Z,8.77
2023-04-07T10:38:14.916Z,8.57
2023-04-07T10:40:43.544Z,8.60
2023-04-07T10:43:12.018Z,8.23
2023-04-07T10:45:59.327Z,7.97
2023-04-07T10:48:32.784Z,8.87
2023-04-07T10:51:16.244Z,8.20
2023-04-07T10:54:27.913Z,8.60
2023-04-07T10:57:11.791Z,9.30
2023-04-07T10:59:43.345Z,7.87
2023-04-07T11:02:35.207Z,7.93
2023-04-07T11:05:03.645Z,8.70
2023-04-07T11:07:55.129Z,8.90
2023-04-07T11:10:23.258Z,9.13
2023-04-07T11:13:08.109Z,9.70
2023-04-07T11:15:40.682Z,8.90
2023-04-07T11:18:17.720Z,8.30
2023-04-07T11:20:54.118Z,7.93
2023-04-07T11:23:25.380Z,8.33
2023-04-07T11:26:00.194Z,9.10
2023-04-07T11:28:28.072Z,9.00
2023-04-07T11:30:58.452Z,9.30
2023-04-07T11:33:28.236Z,9.20
2023-04-07T11:35:57.672Z,10.20
2023-04-07T11:38:28.863Z,9.00
2023-04-07T11:40:57.612Z,9.07
2023-04-07T11:43:27.889Z,9.80
2023-04-07T11:46:08.990Z,8.83
2023-04-07T11:48:38.250Z,8.57
2023-04-07T11:51:07.116Z,9.20
2023-04-07T11:53:38.933Z,8.00
2023-04-07T11:56:09.594Z,8.40
2023-04-07T11:58:38.628Z,8.50
2023-04-07T12:01:08.818Z,9.00
2023-04-07T12:03:38.012Z,8.30
2023-04-07T12:06:06.309Z,9.23
2023-04-07T12:08:45.320Z,8.43
2023-04-07T12:11:13.288Z,8.30
2023-04-07T12:13:41.416Z,7.70
2023-04-07T12:16:09.303Z,9.00
2023-04-07T12:18:37.035Z,9.37
2023-04-07T12:21:05.425Z,9.37
2023-04-07T12:23:33.144Z,8.63
2023-04-07T12:26:02.209Z,10.23
2023-04-07T12:28:29.965Z,9.00
2023-04-07T12:30:57.700Z,9.03
2023-04-07T12:33:25.437Z,8.60
2023-04-07T12:35:53.329Z,8.27
2023-04-07T12:38:21.273Z,8.97
2023-04-07T12:40:48.978Z,10.10
2023-04-07T12:43:18.014Z,9.40
2023-04-07T12:45:45.808Z,9.30
2023-04-07T12:48:13.651Z,10.00
2023-04-07T12:50:41.594Z,10.00
2023-04-07T12:53:09.455Z,9.20
2023-04-07T12:55:37.375Z,10.60
2023-04-07T12:58:05.105Z,9.60
2023-04-07T13:00:34.246Z,9.77
2023-04-07T13:03:03.502Z,9.00
2023-04-07T13:05:31.497Z,9.17
2023-04-07T13:07:59.636Z,9.07
2023-04-07T13:10:27.468Z,8.27
2023-04-07T13:12:55.893Z,8.60
2023-04-07T13:15:24.536Z,10.00
2023-04-07T13:17:53.654Z,8.90
2023-04-07T13:20:21.875Z,9.37
2023-04-07T13:22:59.214Z,8.63
2023-04-07T13:25:33.763Z,9.30
2023-04-07T13:28:01.506Z,7.70
2023-04-07T13:30:29.206Z,8.77
2023-04-07T13:32:58.318Z,10.20
2023-04-07T13:35:26.275Z,8.60
2023-04-07T13:37:54.204Z,7.83
2023-04-07T13:40:21.915Z,8.57
2023-04-07T13:42:49.604Z,8.37
2023-04-07T13:45:17.320Z,7.90
2023-04-07T13:47:46.034Z,7.80
2023-04-07T13:50:15.808Z,8.00
2023-04-07T13:52:43.695Z,7.83
2023-04-07T13:55:11.571Z,7.43
2023-04-07T13:57:39.303Z,7.00
2023-04-07T14:00:08.396Z,8.80
2023-04-07T14:02:36.151Z,8.90
2023-04-07T14:05:03.962Z,7.83
2023-04-07T14:07:33.042Z,7.20
2023-04-07T14:10:01.128Z,7.47
2023-04-07T14:12:28.845Z,7.57
2023-04-07T14:14:57.050Z,8.27
2023-04-07T14:17:24.821Z,7.73
2023-04-07T14:19:52.519Z,6.90
2023-04-07T14:22:20.844Z,7.50
2023-04-07T14:24:49.929Z,8.00
2023-04-07T14:27:20.892Z,6.33
2023-04-07T14:29:48.901Z,7.20
2023-04-07T14:32:17.298Z,7.87
2023-04-07T14:34:45.043Z,7.70
2023-04-07T14:37:13.949Z,8.27
2023-04-07T14:39:45.891Z,7.57
2023-04-07T14:42:24.708Z,7.60
2023-04-07T14:44:53.109Z,7.20
2023-04-07T14:47:21.028Z,6.30
2023-04-07T14:49:49.994Z,7.40
2023-04-07T14:52:19.379Z,7.20
2023-04-07T14:54:47.265Z,6.40
2023-04-07T14:57:15.085Z,7.73
2023-04-07T14:59:44.124Z,6.97
2023-04-07T15:02:12.006Z,7.17
2023-04-07T15:04:39.914Z,7.13
2023-04-07T15:07:07.665Z,7.13
2023-04-07T15:09:35.651Z,8.20
2023-04-07T15:12:05.055Z,6.90
2023-04-07T15:14:32.783Z,7.50
2023-04-07T15:17:01.848Z,7.17
2023-04-07T15:19:29.643Z,7.17
2023-04-07T15:21:57.325Z,7.67
2023-04-07T15:24:25.150Z,7.40
2023-04-07T15:26:52.828Z,6.70
2023-04-07T15:29:20.514Z,7.47
2023-04-07T15:31:48.253Z,6.93
2023-04-07T15:34:17.355Z,6.43
2023-04-07T15:36:45.283Z,6.20
2023-04-07T15:39:12.987Z,7.20
2023-04-07T15:41:42.031Z,6.83
2023-04-07T15:44:09.782Z,8.17
2023-04-07T15:46:37.538Z,6.93
2023-04-07T15:49:05.275Z,7.90
2023-04-07T15:51:34.389Z,6.60
2023-04-07T15:54:02.409Z,7.73
2023-04-07T15:56:30.138Z,7.23
2023-04-07T15:58:57.841Z,6.80
2023-04-07T16:01:25.977Z,6.43
2023-04-07T16:03:54.138Z,6.83
2023-04-07T16:06:22.174Z,6.10
2023-04-07T16:08:51.488Z,6.53
2023-04-07T16:11:19.200Z,6.20
2023-04-07T16:13:47.058Z,8.10
2023-04-07T16:16:14.989Z,6.33
2023-04-07T16:18:42.706Z,6.20
2023-04-07T16:21:11.062Z,6.23
2023-04-07T16:23:38.748Z,5.73
2023-04-07T16:26:07.823Z,5.87
2023-04-07T16:28:35.601Z,6.20
2023-04-07T16:31:05.909Z,7.50
2023-04-07T16:33:33.600Z,5.57
2023-04-07T16:36:01.359Z,6.53
2023-04-07T16:38:29.117Z,5.73
2023-04-07T16:41:03.994Z,6.13
2023-04-07T16:43:33.626Z,6.23
2023-04-07T16:46:01.557Z,5.50
2023-04-07T16:48:29.647Z,6.13
2023-04-07T16:50:57.447Z,6.27
2023-04-07T16:53:25.260Z,5.20
2023-04-07T16:55:53.009Z,6.40
2023-04-07T16:58:20.956Z,6.70
2023-04-07T17:00:49.984Z,6.10
2023-04-07T17:03:17.875Z,5.97
2023-04-07T17:05:47.066Z,5.60
2023-04-07T17:08:14.760Z,4.80
2023-04-07T17:10:42.472Z,6.30
2023-04-07T17:13:10.256Z,5.20
2023-04-07T17:15:38.701Z,6.13
2023-04-07T17:18:07.860Z,6.27
2023-04-07T17:20:35.712Z,6.40
2023-04-07T17:23:03.448Z,5.97
2023-04-07T17:25:31.274Z,6.03
2023-04-07T17:27:59.027Z,5.10
2023-04-07T17:30:26.980Z,4.80
2023-04-07T17:32:55.030Z,4.83
2023-04-07T17:35:25.011Z,6.20
2023-04-07T17:37:53.061Z,6.00
2023-04-07T17:40:21.232Z,4.60
2023-04-07T17:42:49.708Z,5.00
2023-04-07T17:45:17.710Z,5.60
2023-04-07T17:47:46.158Z,5.20
2023-04-07T17:50:14.472Z,5.80
2023-04-07T17:52:43.752Z,4.95
2023-04-07T17:55:12.380Z,5.13
2023-04-07T17:57:41.498Z,6.23
2023-04-07T18:00:09.854Z,5.10
2023-04-07T18:02:40.123Z,5.33
2023-04-07T18:05:08.732Z,6.00
2023-04-07T18:07:37.417Z,5.90
2023-04-07T18:10:08.021Z,6.87
2023-04-07T18:12:35.796Z,7.13
2023-04-07T18:15:04.508Z,8.30
2023-04-07T18:17:32.225Z,6.07
2023-04-07T18:19:59.936Z,7.60
2023-04-07T18:22:27.829Z,6.63
2023-04-07T18:24:55.734Z,5.20
2023-04-07T18:27:25.280Z,5.33
2023-04-07T18:29:53.002Z,5.33
2023-04-07T18:32:20.726Z,5.50
2023-04-07T18:34:48.738Z,6.03
2023-04-07T18:37:16.438Z,4.50
2023-04-07T18:39:44.809Z,5.10
2023-04-07T18:42:12.664Z,5.23
2023-04-07T18:44:41.676Z,5.33
2023-04-07T18:47:09.533Z,5.50
2023-04-07T18:49:37.367Z,4.90
2023-04-07T18:52:05.602Z,5.50
2023-04-07T18:54:33.414Z,5.50
2023-04-07T18:57:01.316Z,4.70
2023-04-07T18:59:29.103Z,5.70
2023-04-07T19:01:58.250Z,4.90
2023-04-07T19:04:26.192Z,4.90
2023-04-07T19:06:54.159Z,5.00
2023-04-07T19:09:22.246Z,5.33
2023-04-07T19:11:49.986Z,4.27
2023-04-07T19:14:17.752Z,3.73
2023-04-07T19:16:45.773Z,7.83
2023-04-07T19:19:14.949Z,9.47
2023-04-07T19:21:42.671Z,7.37
2023-04-07T19:24:10.667Z,4.73
2023-04-07T19:26:38.451Z,5.50
2023-04-07T19:29:07.044Z,6.70
2023-04-07T19:31:35.233Z,7.53
2023-04-07T19:34:03.011Z,42.53
2023-04-07T19:36:32.811Z,14.37
2023-04-07T19:39:00.527Z,5.00
2023-04-07T19:41:29.674Z,4.10
2023-04-07T19:43:57.387Z,4.33
2023-04-07T19:46:25.411Z,3.43
2023-04-07T19:48:53.126Z,4.57
2023-04-07T19:51:20.910Z,4.90
2023-04-07T19:53:50.199Z,6.93
2023-04-07T19:56:18.104Z,5.17
2023-04-07T19:58:45.909Z,3.97
2023-04-07T20:01:17.777Z,4.67
2023-04-07T20:03:46.685Z,4.57
2023-04-07T20:06:15.138Z,5.10
2023-04-07T20:08:43.240Z,4.20
2023-04-07T20:11:15.327Z,4.30
2023-04-07T20:13:43.345Z,8.87
2023-04-07T20:16:11.172Z,8.23
2023-04-07T20:18:38.943Z,7.60
2023-04-07T20:21:06.845Z,5.50
2023-04-07T20:23:35.004Z,4.37
2023-04-07T20:26:03.132Z,4.30
2023-04-07T20:28:32.189Z,4.50
2023-04-07T20:31:00.388Z,3.70
2023-04-07T20:33:28.324Z,4.30
2023-04-07T20:35:56.220Z,4.57
2023-04-07T20:38:25.039Z,4.13
2023-04-07T20:40:53.178Z,3.97
2023-04-07T20:43:23.552Z,5.77
2023-04-07T20:45:53.199Z,4.50
2023-04-07T20:48:23.750Z,4.30
2023-04-07T20:50:52.780Z,4.50
2023-04-07T20:53:20.650Z,4.70
2023-04-07T20:55:48.394Z,4.07
2023-04-07T20:58:17.619Z,4.03
2023-04-07T21:00:45.566Z,4.47
2023-04-07T21:03:15.288Z,5.00
2023-04-07T21:05:43.503Z,4.60
2023-04-07T21:08:13.257Z,4.40
2023-04-07T21:10:42.149Z,4.80
2023-04-07T21:13:10.058Z,4.10
2023-04-07T21:15:37.966Z,4.53
2023-04-07T21:18:05.817Z,4.63
2023-04-07T21:20:36.868Z,4.30
2023-04-07T21:23:07.502Z,4.53
2023-04-07T21:25:35.528Z,4.43
2023-04-07T21:28:03.280Z,5.00
2023-04-07T21:30:31.195Z,5.00
2023-04-07T21:32:59.063Z,4.60
2023-04-07T21:35:28.351Z,4.70
2023-04-07T21:37:57.885Z,5.20
2023-04-07T21:40:25.699Z,5.07
2023-04-07T21:42:53.499Z,4.67
2023-04-07T21:45:21.191Z,4.23
2023-04-07T21:47:48.931Z,5.37
2023-04-07T21:50:16.800Z,5.00
2023-04-07T21:52:44.586Z,4.70
2023-04-07T21:55:13.837Z,4.53
2023-04-07T21:57:41.551Z,4.63
2023-04-07T22:00:10.647Z,4.60
2023-04-07T22:02:38.793Z,5.57
2023-04-07T22:05:07.182Z,4.70
2023-04-07T22:07:34.973Z,4.50
2023-04-07T22:10:02.688Z,5.30
2023-04-07T22:12:31.703Z,4.80
2023-04-07T22:14:59.535Z,4.90
2023-04-07T22:17:28.327Z,6.20
2023-04-07T22:19:56.160Z,5.33
2023-04-07T22:22:23.990Z,5.43
2023-04-07T22:24:51.661Z,5.47
2023-04-07T22:27:19.580Z,5.67
2023-04-07T22:29:48.608Z,5.60
2023-04-07T22:32:16.408Z,5.93
2023-04-07T22:34:44.525Z,5.90
2023-04-07T22:37:12.322Z,6.80
2023-04-07T22:39:40.226Z,5.23
2023-04-07T22:42:07.977Z,5.70
2023-04-07T22:44:35.822Z,6.67
2023-04-07T22:47:05.298Z,6.17
2023-04-07T22:49:33.066Z,6.03
2023-04-07T22:52:00.817Z,6.37
2023-04-07T22:54:28.515Z,5.90
2023-04-07T22:56:56.741Z,6.10
2023-04-07T22:59:24.482Z,5.80
2023-04-07T23:01:52.265Z,5.97
2023-04-07T23:04:22.365Z,5.83
2023-04-07T23:06:50.085Z,5.70
2023-04-07T23:09:17.798Z,6.43
2023-04-07T23:11:47.159Z,6.20
2023-04-07T23:14:15.059Z,5.43
2023-04-07T23:16:42.766Z,5.63
2023-04-07T23:19:11.937Z,5.73
2023-04-07T23:21:41.340Z,6.47
2023-04-07T23:24:09.103Z,6.25
2023-04-07T23:26:36.860Z,6.67
2023-04-07T23:29:04.641Z,5.80
2023-04-07T23:31:32.412Z,5.93
2023-04-07T23:34:01.104Z,5.37
2023-04-07T23:36:28.777Z,6.40
2023-04-07T23:38:57.924Z,5.80
2023-04-07T23:41:25.625Z,5.73
2023-04-07T23:43:53.347Z,5.73
2023-04-07T23:46:21.049Z,5.80
2023-04-07T23:48:49.053Z,5.60
2023-04-07T23:51:17.006Z,5.00
2023-04-07T23:53:44.724Z,5.30
2023-04-07T23:56:13.768Z,5.60
2023-04-07T23:58:41.480Z,4.97
